MHRO

Juan Manuel Galvez International Airport

Roatan Island, Honduras
TAF MHRO 192225Z 2000/2024 13016KT 6000 TSRA SCT022CB SCT080 TX31/2019Z TN26/2012Z BECMG 2003/2005 8000 VCSH SCT020 SCT080 BECMG 2013/2015 9999 NSW SCT024TCU SCT080
Issued Valid From Valid To
Oct-19 @ 22:25 UTC
(5 hours ago)
Oct-20 @ 00:00 UTC
(3 hours ago)
Oct-21 @ 00:00 UTC
(in 21 hours)
Expired Click to View Oct-20 @ 00:00 to Oct-20 @ 03:00
TAF MHRO 192225Z 2000/2024 13016KT 6000 TSRA SCT022CB SCT080 TX31/2019Z TN26/2012Z
Wind Visibility Clouds Conditions
130° at 16 knots 6,003 meters
  • Scattered at 2,200' AGL
  • Scattered at 8,000' AGL
  • Thunderstorm
  • Rain
Becoming Oct-20 @ 03:00 to Oct-20 @ 13:00
BECMG 2003/2005 8000 VCSH SCT020 SCT080
Wind Visibility Clouds
130° at 16 knots 7,998 meters
  • Scattered at 2,000' AGL
  • Scattered at 8,000' AGL
Becoming Oct-20 @ 13:00 to Oct-21 @ 00:00
BECMG 2013/2015 9999 NSW SCT024TCU SCT080
Wind Visibility Clouds Conditions
130° at 16 knots 10,000+ meters
  • Scattered at 2,400' AGL
  • Scattered at 8,000' AGL
TAF MHRO 192225Z 2000/2024 13016KT 6000 TSRA SCT022CB SCT080 TX31/2019Z TN26/2012Z BECMG 2003/2005 8000 VCSH SCT020 SCT080 BECMG 2013/2015 9999 NSW SCT024TCU SCT080
Issued Oct-19 @ 22:25 UTC
(5 hours ago)
Valid From Oct-20 @ 00:00 UTC
(3 hours ago)
Valid To Oct-21 @ 00:00 UTC
(in 21 hours)
Oct-20 @ 00:00 - Oct-20 @ 03:00
Wind Visibility
130° at 16 knots 6,003 meters
Clouds
  • Scattered at 2,200' AGL
  • Scattered at 8,000' AGL
Conditions
  • Thunderstorm
  • Rain
Becoming Oct-20 @ 03:00 - Oct-20 @ 13:00
Wind Visibility
130° at 16 knots 7,998 meters
Clouds
  • Scattered at 2,000' AGL
  • Scattered at 8,000' AGL
Becoming Oct-20 @ 13:00 - Oct-21 @ 00:00
Wind Visibility
130° at 16 knots 10,000+ meters
Clouds
  • Scattered at 2,400' AGL
  • Scattered at 8,000' AGL
Conditions